createdAt,value
2018-03-08T00:00:02.044Z,100146.83
2018-03-08T00:02:29.740Z,100142.02
2018-03-08T00:04:57.433Z,100130.05
2018-03-08T00:07:25.070Z,100129.09
2018-03-08T00:09:52.766Z,100157.56
2018-03-08T00:12:20.406Z,100170.95
2018-03-08T00:14:48.081Z,100322.44
2018-03-08T00:17:15.904Z,100359.34
2018-03-08T00:19:43.538Z,100361.68
2018-03-08T00:22:11.226Z,100362.20
2018-03-08T00:24:38.864Z,100354.48
2018-03-08T00:27:06.552Z,100350.89
2018-03-08T00:29:34.214Z,100342.94
2018-03-08T00:32:01.892Z,100344.89
2018-03-08T00:34:29.526Z,100354.13
2018-03-08T00:36:58.125Z,100338.78
2018-03-08T00:39:25.760Z,100352.25
2018-03-08T00:41:53.484Z,100354.19
2018-03-08T00:44:21.145Z,100354.77
2018-03-08T00:46:48.837Z,100358.75
2018-03-08T00:49:17.346Z,100367.61
2018-03-08T00:51:45.033Z,100370.59
2018-03-08T00:54:12.676Z,100371.30
2018-03-08T00:56:40.352Z,100378.03
2018-03-08T00:59:07.987Z,100385.63
2018-03-08T01:01:36.369Z,100390.72
2018-03-08T01:04:04.020Z,100388.80
2018-03-08T01:06:31.703Z,100390.46
2018-03-08T01:08:59.336Z,100359.07
2018-03-08T01:11:27.015Z,100355.91
2018-03-08T01:13:54.645Z,100360.87
2018-03-08T01:16:22.332Z,100369.13
2018-03-08T01:18:50.076Z,100375.48
2018-03-08T01:21:17.710Z,100173.29
2018-03-08T01:23:45.477Z,100164.98
2018-03-08T01:26:13.173Z,100198.23
2018-03-08T01:28:40.815Z,100209.91
2018-03-08T01:31:08.640Z,100210.03
2018-03-08T01:33:36.412Z,100229.15
2018-03-08T01:36:04.080Z,100237.23
2018-03-08T01:38:31.766Z,100379.38
2018-03-08T01:40:59.408Z,100420.86
2018-03-08T01:43:27.145Z,100441.20
2018-03-08T01:45:54.796Z,100780.17
2018-03-08T01:48:22.481Z,100700.26
2018-03-08T01:50:50.258Z,100583.73
2018-03-08T01:53:17.953Z,100448.81
2018-03-08T01:55:45.716Z,100440.56
2018-03-08T01:58:13.426Z,100591.02
2018-03-08T02:00:41.052Z,100625.96
2018-03-08T02:03:08.752Z,100602.86
2018-03-08T02:05:36.393Z,100601.61
2018-03-08T02:08:04.026Z,100580.56
2018-03-08T02:10:31.702Z,100552.63
2018-03-08T02:12:59.385Z,100352.87
2018-03-08T02:15:27.043Z,100351.53
2018-03-08T02:17:54.732Z,100375.46
2018-03-08T02:20:22.415Z,100512.19
2018-03-08T02:22:50.131Z,100510.94
2018-03-08T02:25:17.808Z,100503.39
2018-03-08T02:27:45.504Z,100487.97
2018-03-08T02:30:13.190Z,100489.63
2018-03-08T02:32:40.833Z,100483.05
2018-03-08T02:35:08.582Z,100478.64
2018-03-08T02:37:36.217Z,100487.72
2018-03-08T02:40:03.956Z,100490.73
2018-03-08T02:42:31.601Z,100442.05
2018-03-08T02:44:59.243Z,100547.27
2018-03-08T02:47:27.716Z,100443.97
2018-03-08T02:49:55.424Z,100465.30
2018-03-08T02:52:23.052Z,100483.17
2018-03-08T02:54:50.728Z,100523.17
2018-03-08T02:57:18.375Z,100517.55
2018-03-08T02:59:47.045Z,100546.56
2018-03-08T03:02:14.754Z,100571.87
2018-03-08T03:04:42.438Z,100582.28
2018-03-08T03:07:10.151Z,100587.25
2018-03-08T03:09:37.833Z,100598.12
2018-03-08T03:12:05.502Z,100607.20
2018-03-08T03:14:33.178Z,100617.89
2018-03-08T03:17:00.863Z,100618.05
2018-03-08T03:19:28.507Z,100614.32
2018-03-08T03:21:56.196Z,100610.18
2018-03-08T03:24:23.825Z,100638.22
2018-03-08T03:26:51.523Z,100650.05
2018-03-08T03:29:19.171Z,100664.34
2018-03-08T03:31:46.964Z,100658.94
2018-03-08T03:34:14.653Z,100680.27
2018-03-08T03:36:42.292Z,100701.27
2018-03-08T03:39:09.970Z,100696.37
2018-03-08T03:41:37.653Z,100716.75
2018-03-08T03:44:05.353Z,100712.53
2018-03-08T03:46:33.006Z,100719.19
2018-03-08T03:49:00.683Z,100719.31
2018-03-08T03:51:28.369Z,100737.33
2018-03-08T03:53:56.052Z,100727.26
2018-03-08T03:56:23.736Z,100761.40
2018-03-08T03:58:51.491Z,100802.13
2018-03-08T04:01:19.175Z,100786.88
2018-03-08T04:03:46.992Z,100816.99
2018-03-08T04:06:14.688Z,100728.02
2018-03-08T04:08:42.360Z,100724.72
2018-03-08T04:11:10.163Z,100789.92
2018-03-08T04:13:37.810Z,100760.14
2018-03-08T04:16:05.501Z,100683.56
2018-03-08T04:18:33.145Z,100754.52
2018-03-08T04:21:00.834Z,100767.30
2018-03-08T04:23:28.469Z,100666.77
2018-03-08T04:25:56.186Z,100744.03
2018-03-08T04:28:23.830Z,100743.19
2018-03-08T04:30:51.628Z,100667.97
2018-03-08T04:33:24.366Z,100721.60
2018-03-08T04:35:52.200Z,100705.36
2018-03-08T04:38:19.878Z,100730.02
2018-03-08T04:40:47.655Z,100742.97
2018-03-08T04:43:15.338Z,100751.25
2018-03-08T04:45:42.968Z,100768.77
2018-03-08T04:48:10.811Z,100836.74
2018-03-08T04:50:38.466Z,100764.80
2018-03-08T04:53:06.151Z,100820.09
2018-03-08T04:55:33.913Z,100831.12
2018-03-08T04:58:01.604Z,100790.80
2018-03-08T05:00:29.275Z,100810.50
2018-03-08T05:02:56.968Z,100793.58
2018-03-08T05:05:24.650Z,100772.27
2018-03-08T05:07:52.344Z,100754.22
2018-03-08T05:10:19.987Z,100747.62
2018-03-08T05:12:47.750Z,100737.45
2018-03-08T05:15:15.411Z,100736.08
2018-03-08T05:17:43.106Z,100729.45
2018-03-08T05:20:10.871Z,100734.59
2018-03-08T05:22:38.590Z,100738.18
2018-03-08T05:25:06.278Z,100637.39
2018-03-08T05:27:33.998Z,100732.68
2018-03-08T05:30:01.664Z,100637.48
2018-03-08T05:32:29.359Z,100736.16
2018-03-08T05:34:57.011Z,100631.78
2018-03-08T05:37:24.712Z,100657.61
2018-03-08T05:39:52.547Z,100683.05
2018-03-08T05:42:20.200Z,100699.67
2018-03-08T05:44:47.892Z,100709.43
2018-03-08T05:47:15.528Z,100702.66
2018-03-08T05:49:43.260Z,100710.80
2018-03-08T05:52:10.908Z,100967.98
2018-03-08T05:54:38.592Z,100991.06
2018-03-08T05:57:06.239Z,100997.33
2018-03-08T05:59:34.884Z,101014.53
2018-03-08T06:02:02.656Z,101041.68
2018-03-08T06:04:30.356Z,101079.54
2018-03-08T06:06:58.059Z,101094.42
2018-03-08T06:09:25.763Z,101109.98
2018-03-08T06:11:53.468Z,101347.22
2018-03-08T06:14:21.507Z,100907.14
2018-03-08T06:16:49.478Z,101001.32
2018-03-08T06:19:17.331Z,101032.64
2018-03-08T06:21:45.220Z,101049.05
2018-03-08T06:24:13.097Z,101064.44
2018-03-08T06:26:41.040Z,101062.09
2018-03-08T06:29:08.706Z,101055.03
2018-03-08T06:31:36.417Z,101058.13
2018-03-08T06:34:04.096Z,101075.95
2018-03-08T06:36:31.866Z,101093.52
2018-03-08T06:38:59.703Z,101163.88
2018-03-08T06:41:27.435Z,101142.80
2018-03-08T06:43:56.578Z,101127.84
2018-03-08T06:46:24.422Z,101139.06
2018-03-08T06:48:52.287Z,101157.50
2018-03-08T06:51:20.087Z,101149.25
2018-03-08T06:53:47.863Z,101160.80
2018-03-08T06:56:15.593Z,101166.54
2018-03-08T06:58:43.427Z,101157.55
2018-03-08T07:01:11.123Z,101154.61
2018-03-08T07:03:38.782Z,101156.67
2018-03-08T07:06:06.626Z,101172.31
2018-03-08T07:08:34.532Z,101145.01
2018-03-08T07:11:02.378Z,101139.26
2018-03-08T07:13:30.215Z,101103.33
2018-03-08T07:15:58.090Z,101108.97
2018-03-08T07:18:25.866Z,101084.50
2018-03-08T07:20:53.698Z,101132.48
2018-03-08T07:23:21.396Z,101089.70
2018-03-08T07:25:49.079Z,101112.48
2018-03-08T07:28:16.743Z,101082.38
2018-03-08T07:30:44.502Z,101070.87
2018-03-08T07:33:12.173Z,101077.21
2018-03-08T07:35:39.981Z,101069.36
2018-03-08T07:38:07.743Z,101068.98
2018-03-08T07:40:35.570Z,100978.42
2018-03-08T07:43:03.325Z,101000.47
2018-03-08T07:45:31.161Z,101021.14
2018-03-08T07:47:58.983Z,100940.09
2018-03-08T07:50:26.695Z,100975.38
2018-03-08T07:52:54.498Z,101019.98
2018-03-08T07:55:22.250Z,101006.10
2018-03-08T07:57:50.030Z,101040.55
2018-03-08T08:00:17.789Z,101025.45
2018-03-08T08:02:45.595Z,101023.95
2018-03-08T08:05:25.033Z,101057.84
2018-03-08T08:08:04.390Z,101075.36
2018-03-08T08:10:32.238Z,101184.25
2018-03-08T08:13:00.096Z,101278.44
2018-03-08T08:15:27.844Z,101377.27
2018-03-08T08:17:55.716Z,101326.48
2018-03-08T08:20:23.499Z,101261.63
2018-03-08T08:22:51.378Z,101375.66
2018-03-08T08:25:19.191Z,101388.11
2018-03-08T08:27:46.978Z,101409.26
2018-03-08T08:30:14.755Z,101383.79
2018-03-08T08:32:42.570Z,101421.62
2018-03-08T08:35:10.314Z,101427.47
2018-03-08T08:37:38.142Z,101409.72
2018-03-08T08:40:05.951Z,101410.47
2018-03-08T08:42:33.827Z,101403.05
2018-03-08T08:45:01.646Z,101386.04
2018-03-08T08:47:29.483Z,101373.75
2018-03-08T08:49:57.237Z,101383.53
2018-03-08T08:52:25.263Z,101401.87
2018-03-08T08:54:53.047Z,101400.80
2018-03-08T08:57:21.676Z,101402.37
2018-03-08T08:59:49.542Z,101408.12
2018-03-08T09:02:17.287Z,101401.81
2018-03-08T09:04:45.142Z,101379.91
2018-03-08T09:07:12.959Z,101307.21
2018-03-08T09:09:40.775Z,101222.05
2018-03-08T09:12:08.515Z,101290.98
2018-03-08T09:14:36.585Z,101173.29
2018-03-08T09:17:04.355Z,101176.48
2018-03-08T09:19:32.227Z,101259.84
2018-03-08T09:21:59.971Z,101130.66
2018-03-08T09:24:27.790Z,101249.50
2018-03-08T09:26:55.566Z,101322.15
2018-03-08T09:29:23.395Z,101422.97
2018-03-08T09:31:51.271Z,101501.48
2018-03-08T09:34:19.150Z,101561.95
2018-03-08T09:36:46.829Z,101681.09
2018-03-08T09:39:14.576Z,101589.19
2018-03-08T09:41:42.287Z,101448.05
2018-03-08T09:44:10.032Z,101374.92
2018-03-08T09:46:37.769Z,101334.56
2018-03-08T09:49:05.456Z,101215.82
2018-03-08T09:51:33.152Z,101353.59
2018-03-08T09:54:00.858Z,101447.07
2018-03-08T09:56:28.757Z,101530.06
2018-03-08T09:58:56.445Z,101588.92
2018-03-08T10:01:24.184Z,101656.23
2018-03-08T10:03:51.868Z,101686.59
2018-03-08T10:06:19.673Z,101775.78
2018-03-08T10:08:47.422Z,101801.34
2018-03-08T10:11:15.109Z,101789.39
2018-03-08T10:13:42.879Z,101803.56
2018-03-08T10:16:10.607Z,101803.62
2018-03-08T10:18:38.354Z,101771.12
2018-03-08T10:21:06.136Z,101760.05
2018-03-08T10:23:33.858Z,101755.36
2018-03-08T10:26:01.643Z,101774.66
2018-03-08T10:28:29.309Z,101778.52
2018-03-08T10:30:56.999Z,101765.37
2018-03-08T10:33:24.758Z,101771.70
2018-03-08T10:35:52.458Z,101759.45
2018-03-08T10:38:20.371Z,101736.10
2018-03-08T10:40:48.179Z,101699.82
2018-03-08T10:43:15.896Z,101680.41
2018-03-08T10:45:43.566Z,101671.05
2018-03-08T10:48:11.290Z,101649.31
2018-03-08T10:50:38.982Z,101627.07
2018-03-08T10:53:06.829Z,101576.31
2018-03-08T10:55:34.602Z,101548.27
2018-03-08T10:58:02.378Z,101526.14
2018-03-08T11:00:35.788Z,101498.70
2018-03-08T11:03:06.981Z,101500.08
2018-03-08T11:05:40.058Z,101520.99
2018-03-08T11:08:07.881Z,101694.44
2018-03-08T11:10:35.709Z,101716.19
2018-03-08T11:13:03.444Z,101681.41
2018-03-08T11:15:31.272Z,101701.78
2018-03-08T11:17:59.209Z,101650.94
2018-03-08T11:20:26.886Z,101616.72
2018-03-08T11:22:54.569Z,101609.37
2018-03-08T11:25:22.279Z,101604.38
2018-03-08T11:27:49.990Z,101588.33
2018-03-08T11:30:17.687Z,101568.88
2018-03-08T11:32:45.356Z,101542.11
2018-03-08T11:35:13.085Z,101539.56
2018-03-08T11:37:40.915Z,101496.62
2018-03-08T11:40:08.614Z,101473.08
2018-03-08T11:42:36.442Z,101437.81
2018-03-08T11:45:04.215Z,101420.28
2018-03-08T11:47:31.891Z,101371.58
2018-03-08T11:49:59.666Z,101277.73
2018-03-08T11:52:27.386Z,101124.34
2018-03-08T11:54:55.196Z,101097.34
2018-03-08T11:57:22.990Z,101082.89
2018-03-08T11:59:50.948Z,101065.78
2018-03-08T12:02:18.779Z,101031.00
2018-03-08T12:04:46.540Z,100996.83
2018-03-08T12:07:14.343Z,100960.80
2018-03-08T12:09:42.014Z,100920.48
2018-03-08T12:12:09.850Z,100897.20
2018-03-08T12:14:37.642Z,100873.03
2018-03-08T12:17:05.432Z,100818.54
2018-03-08T12:19:33.154Z,100781.77
2018-03-08T12:22:00.999Z,100746.89
2018-03-08T12:24:28.779Z,100721.53
2018-03-08T12:26:56.563Z,100700.83
2018-03-08T12:29:24.244Z,100686.20
2018-03-08T12:31:52.119Z,100668.19
2018-03-08T12:34:19.802Z,100643.30
2018-03-08T12:36:47.530Z,100616.99
2018-03-08T12:39:15.231Z,100601.06
2018-03-08T12:41:43.021Z,100586.16
2018-03-08T12:44:10.733Z,100554.91
2018-03-08T12:46:38.386Z,100548.61
2018-03-08T12:49:06.125Z,100517.16
2018-03-08T12:51:33.892Z,100517.91
2018-03-08T12:54:01.610Z,100452.55
2018-03-08T12:56:29.411Z,100396.44
2018-03-08T12:58:57.243Z,100371.78
2018-03-08T13:01:24.889Z,100330.71
2018-03-08T13:03:54.118Z,100314.03
2018-03-08T13:06:22.007Z,100316.24
2018-03-08T13:08:49.741Z,100310.88
2018-03-08T13:11:17.438Z,100281.72
2018-03-08T13:13:45.139Z,100248.09
2018-03-08T13:16:12.978Z,100216.94
2018-03-08T13:18:40.697Z,100194.92
2018-03-08T13:21:08.364Z,100186.44
2018-03-08T13:23:36.198Z,100174.97
2018-03-08T13:26:03.967Z,100156.33
2018-03-08T13:28:31.811Z,100141.45
2018-03-08T13:30:59.475Z,100143.82
2018-03-08T13:33:27.218Z,100132.58
2018-03-08T13:35:55.047Z,100142.27
2018-03-08T13:38:22.806Z,100116.81
2018-03-08T13:40:50.669Z,100095.38
2018-03-08T13:43:18.470Z,100069.92
2018-03-08T13:45:46.309Z,100054.56
2018-03-08T13:48:14.170Z,100046.92
2018-03-08T13:50:41.962Z,100030.91
2018-03-08T13:53:09.642Z,100022.48
2018-03-08T13:55:37.354Z,100008.44
2018-03-08T13:58:05.054Z,99987.88
2018-03-08T14:00:32.714Z,99973.30
2018-03-08T14:03:00.563Z,99974.16
2018-03-08T14:05:28.302Z,99964.28
2018-03-08T14:07:56.151Z,99967.91
2018-03-08T14:10:23.883Z,99934.83
2018-03-08T14:12:51.726Z,99921.11
2018-03-08T14:15:19.478Z,99909.95
2018-03-08T14:17:47.229Z,99895.37
2018-03-08T14:20:15.086Z,99879.84
2018-03-08T14:22:42.923Z,99870.97
2018-03-08T14:25:10.743Z,99870.20
2018-03-08T14:27:38.487Z,99859.88
2018-03-08T14:30:06.350Z,99853.89
2018-03-08T14:32:34.183Z,99847.70
2018-03-08T14:35:01.887Z,99842.48
2018-03-08T14:37:29.628Z,99830.14
2018-03-08T14:39:57.344Z,99816.20
2018-03-08T14:42:25.039Z,99814.64
2018-03-08T14:44:52.724Z,99810.11
2018-03-08T14:47:20.454Z,99803.01
2018-03-08T14:49:48.283Z,99799.70
2018-03-08T14:52:16.006Z,99796.48
2018-03-08T14:54:43.874Z,99796.19
2018-03-08T14:57:11.718Z,99789.98
2018-03-08T14:59:39.480Z,99781.93
2018-03-08T15:02:07.386Z,99780.95
2018-03-08T15:04:35.053Z,99782.66
2018-03-08T15:07:02.801Z,99772.78
2018-03-08T15:09:30.497Z,99769.86
2018-03-08T15:11:58.182Z,99759.05
2018-03-08T15:14:25.888Z,99758.48
2018-03-08T15:16:53.706Z,99755.22
2018-03-08T15:19:21.454Z,99756.30
2018-03-08T15:21:49.170Z,99763.27
2018-03-08T15:24:16.894Z,99759.23
2018-03-08T15:29:21.118Z,99762.08
2018-03-08T15:31:48.778Z,99749.98
2018-03-08T15:34:16.588Z,99745.38
2018-03-08T15:36:44.313Z,99746.74
2018-03-08T15:39:13.225Z,99754.20
2018-03-08T15:41:41.008Z,99750.97
2018-03-08T15:44:08.836Z,99750.15
2018-03-08T15:46:36.591Z,99749.02
2018-03-08T15:49:04.381Z,99746.74
2018-03-08T15:51:32.190Z,99747.06
2018-03-08T15:53:59.936Z,99743.59
2018-03-08T15:56:27.631Z,99738.80
2018-03-08T15:58:55.426Z,99735.95
2018-03-08T16:01:23.237Z,99740.09
2018-03-08T16:03:50.903Z,99738.23
2018-03-08T16:06:25.382Z,99741.92
2018-03-08T16:09:01.011Z,99739.84
2018-03-08T16:11:28.804Z,99738.16
2018-03-08T16:13:56.525Z,99741.31
2018-03-08T16:16:24.247Z,99738.95
2018-03-08T16:18:51.974Z,99742.22
2018-03-08T16:21:19.687Z,99737.99
2018-03-08T16:23:47.483Z,99743.70
2018-03-08T16:26:15.305Z,99745.23
2018-03-08T16:28:43.178Z,99744.48
2018-03-08T16:31:10.911Z,99743.69
2018-03-08T16:33:38.726Z,99743.77
2018-03-08T16:36:06.491Z,99741.00
2018-03-08T16:38:34.222Z,99738.09
2018-03-08T16:41:01.935Z,99745.95
2018-03-08T16:43:29.626Z,99741.28
2018-03-08T16:45:57.374Z,99742.11
2018-03-08T16:48:25.070Z,99743.31
2018-03-08T16:50:52.734Z,99742.27
2018-03-08T16:53:20.514Z,99738.88
2018-03-08T16:55:48.238Z,99742.75
2018-03-08T16:58:15.966Z,99745.55
2018-03-08T17:00:43.632Z,99746.07
2018-03-08T17:03:11.358Z,99744.55
2018-03-08T17:05:39.911Z,99740.72
2018-03-08T17:08:07.642Z,99737.13
2018-03-08T17:10:35.378Z,99738.88
2018-03-08T17:13:03.078Z,99743.80
2018-03-08T17:15:30.799Z,99739.47
2018-03-08T17:17:58.510Z,99735.40
2018-03-08T17:20:26.294Z,99733.74
2018-03-08T17:22:53.946Z,99737.50
2018-03-08T17:25:21.697Z,99735.81
2018-03-08T17:27:49.377Z,99730.48
2018-03-08T17:30:17.139Z,99744.70
2018-03-08T17:32:44.856Z,99734.28
2018-03-08T17:35:12.558Z,99743.89
2018-03-08T17:37:40.221Z,99746.83
2018-03-08T17:40:07.928Z,99755.25
2018-03-08T17:42:35.576Z,99752.97
2018-03-08T17:45:03.267Z,99754.60
2018-03-08T17:47:30.912Z,99759.13
2018-03-08T17:49:58.757Z,99763.63
2018-03-08T17:52:26.576Z,99769.06
2018-03-08T17:54:54.325Z,99774.31
2018-03-08T17:57:22.464Z,99788.09
2018-03-08T17:59:50.478Z,99788.59
2018-03-08T18:02:18.396Z,99793.88
2018-03-08T18:04:46.643Z,99800.92
2018-03-08T18:07:15.217Z,99818.62
2018-03-08T18:09:43.402Z,99811.84
2018-03-08T18:12:11.706Z,99818.26
2018-03-08T18:14:40.014Z,99836.53
2018-03-08T18:17:07.703Z,99847.93
2018-03-08T18:19:35.397Z,99867.75
2018-03-08T18:22:03.117Z,99888.46
2018-03-08T18:24:30.771Z,99909.06
2018-03-08T18:26:58.456Z,99928.54
2018-03-08T18:29:26.104Z,99944.27
2018-03-08T18:31:53.798Z,99963.78
2018-03-08T18:34:21.516Z,99979.09
2018-03-08T18:36:49.295Z,100003.28
2018-03-08T18:39:16.973Z,100020.13
2018-03-08T18:41:44.642Z,100040.13
2018-03-08T18:44:12.403Z,100065.48
2018-03-08T18:46:40.051Z,100104.05
2018-03-08T18:49:07.813Z,100127.63
2018-03-08T18:51:35.512Z,100153.83
2018-03-08T18:54:03.228Z,100173.55
2018-03-08T18:56:30.943Z,100186.11
2018-03-08T18:58:58.631Z,100210.14
2018-03-08T19:01:26.281Z,100225.50
2018-03-08T19:03:53.985Z,100240.87
2018-03-08T19:06:21.675Z,100246.69
2018-03-08T19:08:49.399Z,100254.86
2018-03-08T19:11:17.078Z,100259.55
2018-03-08T19:13:44.777Z,100274.59
2018-03-08T19:16:12.459Z,100279.36
2018-03-08T19:18:40.192Z,100278.00
2018-03-08T19:21:07.897Z,100274.48
2018-03-08T19:23:35.589Z,100276.55
2018-03-08T19:26:03.335Z,100282.42
2018-03-08T19:28:31.055Z,100283.83
2018-03-08T19:30:58.745Z,100279.08
2018-03-08T19:33:26.402Z,100287.05
2018-03-08T19:35:54.126Z,100297.47
2018-03-08T19:38:21.855Z,100309.29
2018-03-08T19:40:49.570Z,100316.66
2018-03-08T19:43:17.270Z,100329.41
2018-03-08T19:45:44.950Z,100340.22
2018-03-08T19:48:12.616Z,100344.34
2018-03-08T19:50:40.331Z,100370.36
2018-03-08T19:53:08.114Z,100377.19
2018-03-08T19:55:35.886Z,100382.31
2018-03-08T19:58:03.537Z,100394.37
2018-03-08T20:00:31.246Z,100393.20
2018-03-08T20:02:58.943Z,100399.86
2018-03-08T20:05:26.588Z,100414.67
2018-03-08T20:07:54.264Z,100446.06
2018-03-08T20:10:21.915Z,100475.61
2018-03-08T20:12:49.595Z,100492.70
2018-03-08T20:15:17.369Z,100509.56
2018-03-08T20:17:45.077Z,100529.62
2018-03-08T20:20:12.766Z,100583.11
2018-03-08T20:22:40.477Z,100615.57
2018-03-08T20:25:08.192Z,100649.84
2018-03-08T20:27:35.868Z,100668.20
2018-03-08T20:30:03.588Z,100701.82
2018-03-08T20:32:31.315Z,100766.79
2018-03-08T20:34:59.020Z,101057.58
2018-03-08T20:37:26.708Z,100840.07
2018-03-08T20:39:54.475Z,100888.95
2018-03-08T20:42:22.127Z,100949.94
2018-03-08T20:44:49.807Z,100986.33
2018-03-08T20:47:17.523Z,101012.63
2018-03-08T20:49:45.267Z,101019.56
2018-03-08T20:52:13.050Z,101055.00
2018-03-08T20:54:40.730Z,101064.27
2018-03-08T20:57:08.371Z,101063.18
2018-03-08T20:59:36.065Z,101084.02
2018-03-08T21:02:03.730Z,101119.38
2018-03-08T21:04:31.433Z,101207.37
2018-03-08T21:06:59.297Z,101340.79
2018-03-08T21:09:26.994Z,101380.01
2018-03-08T21:11:54.702Z,101459.59
2018-03-08T21:14:22.429Z,101617.95
2018-03-08T21:16:50.105Z,101310.28
2018-03-08T21:19:17.831Z,100744.33
2018-03-08T21:21:45.450Z,100688.58
2018-03-08T21:24:13.210Z,100685.60
2018-03-08T21:26:41.106Z,100672.11
2018-03-08T21:29:09.036Z,100665.80
2018-03-08T21:31:36.720Z,100676.04
2018-03-08T21:34:04.418Z,100683.91
2018-03-08T21:36:32.122Z,100710.80
2018-03-08T21:38:59.842Z,100730.31
2018-03-08T21:41:27.543Z,100763.05
2018-03-08T21:43:55.259Z,100805.98
2018-03-08T21:46:23.031Z,101044.56
2018-03-08T21:48:50.719Z,101048.57
2018-03-08T21:51:18.429Z,101049.23
2018-03-08T21:53:46.086Z,101036.55
2018-03-08T21:56:13.831Z,101031.03
2018-03-08T21:58:41.462Z,101034.61
2018-03-08T22:01:09.166Z,101028.51
2018-03-08T22:03:36.871Z,101042.72
2018-03-08T22:06:04.589Z,101053.91
2018-03-08T22:08:32.254Z,101055.53
2018-03-08T22:10:59.951Z,101065.03
2018-03-08T22:13:27.614Z,101108.52
2018-03-08T22:15:55.426Z,101134.73
2018-03-08T22:18:23.186Z,101169.09
2018-03-08T22:20:50.883Z,101166.94
2018-03-08T22:23:18.520Z,101192.37
2018-03-08T22:25:46.242Z,101168.89
2018-03-08T22:28:13.875Z,101186.18
2018-03-08T22:30:41.562Z,100852.38
2018-03-08T22:33:09.307Z,100872.25
2018-03-08T22:35:36.976Z,100910.48
2018-03-08T22:38:04.665Z,100942.95
2018-03-08T22:40:32.398Z,100976.37
2018-03-08T22:43:00.101Z,101057.95
2018-03-08T22:45:27.828Z,101124.77
2018-03-08T22:47:55.466Z,101178.19
2018-03-08T22:50:23.258Z,102010.52
2018-03-08T22:52:50.930Z,101380.19
2018-03-08T22:55:18.603Z,101351.45
2018-03-08T22:57:46.375Z,101347.19
2018-03-08T23:00:14.074Z,101334.90
2018-03-08T23:02:41.762Z,101323.98
2018-03-08T23:05:09.404Z,101301.05
2018-03-08T23:07:37.098Z,101271.80
2018-03-08T23:10:04.775Z,101298.32
2018-03-08T23:12:32.453Z,101414.20
2018-03-08T23:15:00.092Z,101373.58
2018-03-08T23:17:28.847Z,101380.97
2018-03-08T23:19:56.514Z,101492.42
2018-03-08T23:22:24.148Z,101470.14
2018-03-08T23:24:51.826Z,101436.80
2018-03-08T23:27:19.508Z,101455.82
2018-03-08T23:29:47.189Z,101382.14
2018-03-08T23:32:14.876Z,101475.66
2018-03-08T23:34:42.545Z,101379.56
2018-03-08T23:37:10.178Z,101475.16
2018-03-08T23:39:37.855Z,101434.33
2018-03-08T23:42:05.516Z,101460.59
2018-03-08T23:44:33.195Z,101450.87
2018-03-08T23:47:00.881Z,101436.36
2018-03-08T23:49:28.559Z,101448.34
2018-03-08T23:51:56.252Z,101440.41
2018-03-08T23:54:23.943Z,101418.95
2018-03-08T23:56:51.639Z,101420.78
2018-03-08T23:59:19.278Z,101438.98
